VLG150 LEAS-LEVC
Flight info
| Callsign | VLG150 |
|---|---|
| Flight time | 1h 3m |
| Altitude | 33000 |
| Route | KUVAN Y27 LARVO DCT ZMR DCT PDT/N0432F340 M871 ABOSI |
| Aircraft | A320/M-SDE3FGHIRWY/LB1 |
Departure
| Time | 2026-04-20 13:12 |
|---|---|
| Airport | Asturias Airport (LEAS) |
Arrival
| Time | 2026-04-20 14:15 |
|---|---|
| Airport | Valencia Airport (LEVC) |
| Time | Latitude | Longitude | Altitude | Speed | Heading |
|---|---|---|---|---|---|
| 2026-04-20 12:53 | 43.56024 | -6.03331 | 383 ft | 0 kts | 197° |
| 2026-04-20 12:57 | 43.56025 | -6.03331 | 383 ft | 0 kts | 197° |
| 2026-04-20 13:06 | 43.56037 | -6.03325 | 383 ft | 3 kts | 193° |
| 2026-04-20 13:06 | 43.56055 | -6.03324 | 383 ft | 3 kts | 157° |
| 2026-04-20 13:06 | 43.56071 | -6.03334 | 383 ft | 3 kts | 135° |
| 2026-04-20 13:06 | 43.56080 | -6.03352 | 383 ft | 0 kts | 107° |
| 2026-04-20 13:08 | 43.56075 | -6.03326 | 383 ft | 5 kts | 104° |
| 2026-04-20 13:08 | 43.56069 | -6.03280 | 383 ft | 5 kts | 92° |
| 2026-04-20 13:08 | 43.56090 | -6.03229 | 383 ft | 8 kts | 40° |
| 2026-04-20 13:09 | 43.56118 | -6.03153 | 384 ft | 11 kts | 92° |
| 2026-04-20 13:09 | 43.56093 | -6.03031 | 384 ft | 15 kts | 108° |
| 2026-04-20 13:09 | 43.56055 | -6.02872 | 383 ft | 20 kts | 108° |
| 2026-04-20 13:09 | 43.56008 | -6.02672 | 383 ft | 24 kts | 108° |
| 2026-04-20 13:10 | 43.55955 | -6.02439 | 383 ft | 26 kts | 106° |
| 2026-04-20 13:10 | 43.56008 | -6.02218 | 391 ft | 23 kts | 33° |
| 2026-04-20 13:10 | 43.56067 | -6.02234 | 392 ft | 8 kts | 289° |
| 2026-04-20 13:10 | 43.56074 | -6.02266 | 393 ft | 0 kts | 286° |
| 2026-04-20 13:11 | 43.56109 | -6.02419 | 390 ft | 49 kts | 288° |
| 2026-04-20 13:11 | 43.56293 | -6.03188 | 397 ft | 117 kts | 288° |
| 2026-04-20 13:12 | 43.56599 | -6.04498 | 536 ft | 156 kts | 288° |
| 2026-04-20 13:12 | 43.56942 | -6.05966 | 1163 ft | 166 kts | 289° |
| 2026-04-20 13:12 | 43.57316 | -6.07512 | 1763 ft | 177 kts | 290° |
| 2026-04-20 13:12 | 43.57739 | -6.09193 | 2121 ft | 194 kts | 290° |
| 2026-04-20 13:13 | 43.58182 | -6.11044 | 2494 ft | 211 kts | 289° |
| 2026-04-20 13:13 | 43.58645 | -6.13053 | 2910 ft | 227 kts | 289° |
| 2026-04-20 13:13 | 43.59145 | -6.15134 | 3654 ft | 230 kts | 287° |
| 2026-04-20 13:13 | 43.59270 | -6.17285 | 4467 ft | 225 kts | 252° |
| 2026-04-20 13:14 | 43.58445 | -6.19043 | 5262 ft | 220 kts | 214° |
| 2026-04-20 13:14 | 43.57053 | -6.19958 | 5909 ft | 226 kts | 197° |
| 2026-04-20 13:14 | 43.55524 | -6.20477 | 6661 ft | 227 kts | 193° |
| 2026-04-20 13:14 | 43.53990 | -6.20934 | 7387 ft | 229 kts | 194° |
| 2026-04-20 13:15 | 43.52435 | -6.21440 | 8099 ft | 231 kts | 195° |
| 2026-04-20 13:15 | 43.50874 | -6.22004 | 8811 ft | 233 kts | 197° |
| 2026-04-20 13:15 | 43.49307 | -6.22619 | 9527 ft | 235 kts | 198° |
| 2026-04-20 13:15 | 43.47728 | -6.23270 | 10217 ft | 238 kts | 199° |
| 2026-04-20 13:16 | 43.46089 | -6.23774 | 10742 ft | 251 kts | 191° |
| 2026-04-20 13:16 | 43.44288 | -6.24181 | 10996 ft | 274 kts | 191° |
| 2026-04-20 13:16 | 43.42326 | -6.24623 | 11213 ft | 298 kts | 191° |
| 2026-04-20 13:16 | 43.40204 | -6.25104 | 11412 ft | 321 kts | 191° |
| 2026-04-20 13:17 | 43.37944 | -6.25615 | 11811 ft | 335 kts | 191° |
| 2026-04-20 13:17 | 43.35624 | -6.26133 | 12481 ft | 340 kts | 191° |
| 2026-04-20 13:17 | 43.33277 | -6.26659 | 13183 ft | 343 kts | 191° |
| 2026-04-20 13:17 | 43.30903 | -6.27194 | 13892 ft | 347 kts | 192° |
| 2026-04-20 13:18 | 43.28513 | -6.27737 | 14519 ft | 350 kts | 192° |
| 2026-04-20 13:18 | 43.26098 | -6.28290 | 15146 ft | 353 kts | 192° |
| 2026-04-20 13:18 | 43.23660 | -6.28848 | 15734 ft | 357 kts | 191° |
| 2026-04-20 13:18 | 43.21202 | -6.29408 | 16354 ft | 360 kts | 191° |
| 2026-04-20 13:19 | 43.18757 | -6.29963 | 16967 ft | 363 kts | 191° |
| 2026-04-20 13:19 | 43.16258 | -6.30529 | 17569 ft | 366 kts | 191° |
| 2026-04-20 13:19 | 43.13732 | -6.31085 | 18195 ft | 369 kts | 188° |
| 2026-04-20 13:19 | 43.11147 | -6.31183 | 18714 ft | 375 kts | 177° |
| 2026-04-20 13:20 | 43.08562 | -6.30573 | 19244 ft | 380 kts | 166° |
| 2026-04-20 13:20 | 43.06030 | -6.29458 | 19773 ft | 384 kts | 163° |
| 2026-04-20 13:20 | 43.03486 | -6.28314 | 20334 ft | 386 kts | 163° |
| 2026-04-20 13:20 | 43.00919 | -6.27163 | 20884 ft | 390 kts | 164° |
| 2026-04-20 13:21 | 42.98325 | -6.26007 | 21456 ft | 393 kts | 164° |
| 2026-04-20 13:21 | 42.95707 | -6.24845 | 21904 ft | 398 kts | 164° |
| 2026-04-20 13:21 | 42.93051 | -6.23669 | 22319 ft | 403 kts | 164° |
| 2026-04-20 13:21 | 42.90368 | -6.22481 | 22809 ft | 407 kts | 164° |
| 2026-04-20 13:22 | 42.87668 | -6.21282 | 23256 ft | 411 kts | 164° |
| 2026-04-20 13:22 | 42.84932 | -6.20071 | 23641 ft | 415 kts | 164° |
| 2026-04-20 13:22 | 42.82173 | -6.18852 | 23994 ft | 418 kts | 164° |
| 2026-04-20 13:22 | 42.79395 | -6.17627 | 24382 ft | 421 kts | 164° |
| 2026-04-20 13:23 | 42.76604 | -6.16397 | 24730 ft | 423 kts | 164° |
| 2026-04-20 13:23 | 42.73798 | -6.15168 | 25093 ft | 425 kts | 164° |
| 2026-04-20 13:23 | 42.70973 | -6.13944 | 25464 ft | 427 kts | 165° |
| 2026-04-20 13:23 | 42.68137 | -6.12723 | 25824 ft | 429 kts | 165° |
| 2026-04-20 13:24 | 42.65286 | -6.11498 | 26183 ft | 430 kts | 165° |
| 2026-04-20 13:24 | 42.62458 | -6.10284 | 26537 ft | 432 kts | 165° |
| 2026-04-20 13:24 | 42.59584 | -6.09052 | 26877 ft | 434 kts | 165° |
| 2026-04-20 13:24 | 42.56699 | -6.07814 | 27208 ft | 436 kts | 165° |
| 2026-04-20 13:25 | 42.53797 | -6.06568 | 27536 ft | 438 kts | 165° |
| 2026-04-20 13:25 | 42.50888 | -6.05317 | 27851 ft | 440 kts | 166° |
| 2026-04-20 13:25 | 42.47963 | -6.04058 | 28160 ft | 442 kts | 166° |
| 2026-04-20 13:25 | 42.45027 | -6.02795 | 28453 ft | 444 kts | 166° |
| 2026-04-20 13:26 | 42.42076 | -6.01527 | 28742 ft | 445 kts | 166° |
| 2026-04-20 13:26 | 42.39115 | -6.00258 | 29009 ft | 447 kts | 166° |
| 2026-04-20 13:26 | 42.36145 | -5.98991 | 29278 ft | 448 kts | 166° |
| 2026-04-20 13:26 | 42.33162 | -5.97722 | 29529 ft | 450 kts | 166° |
| 2026-04-20 13:27 | 42.30174 | -5.96452 | 29784 ft | 452 kts | 166° |
| 2026-04-20 13:27 | 42.27171 | -5.95175 | 30023 ft | 453 kts | 166° |
| 2026-04-20 13:27 | 42.24168 | -5.93898 | 30324 ft | 452 kts | 166° |
| 2026-04-20 13:27 | 42.21173 | -5.92624 | 30616 ft | 451 kts | 166° |
| 2026-04-20 13:28 | 42.18190 | -5.91359 | 30903 ft | 450 kts | 167° |
| 2026-04-20 13:28 | 42.15205 | -5.90091 | 31178 ft | 449 kts | 166° |
| 2026-04-20 13:28 | 42.12263 | -5.88838 | 31450 ft | 449 kts | 166° |
| 2026-04-20 13:28 | 42.09284 | -5.87574 | 31735 ft | 448 kts | 166° |
| 2026-04-20 13:29 | 42.06312 | -5.86314 | 32026 ft | 448 kts | 166° |
| 2026-04-20 13:29 | 42.03344 | -5.85059 | 32312 ft | 447 kts | 166° |
| 2026-04-20 13:29 | 42.00378 | -5.83810 | 32592 ft | 446 kts | 166° |
| 2026-04-20 13:29 | 41.97404 | -5.82558 | 32861 ft | 446 kts | 166° |
| 2026-04-20 13:30 | 41.94446 | -5.81310 | 32951 ft | 445 kts | 166° |
| 2026-04-20 13:30 | 41.88549 | -5.78819 | 32961 ft | 443 kts | 166° |
| 2026-04-20 13:31 | 41.82667 | -5.76343 | 32958 ft | 443 kts | 166° |
| 2026-04-20 13:31 | 41.76792 | -5.73879 | 32959 ft | 442 kts | 166° |
| 2026-04-20 13:32 | 41.70949 | -5.71440 | 32961 ft | 442 kts | 166° |
| 2026-04-20 13:32 | 41.65076 | -5.68992 | 32958 ft | 442 kts | 166° |
| 2026-04-20 13:33 | 41.59209 | -5.66547 | 32960 ft | 442 kts | 166° |
| 2026-04-20 13:33 | 41.53652 | -5.62939 | 32961 ft | 451 kts | 148° |
| 2026-04-20 13:33 | 41.51257 | -5.60213 | 32961 ft | 456 kts | 137° |
| 2026-04-20 13:34 | 41.49222 | -5.56946 | 32964 ft | 460 kts | 129° |
| 2026-04-20 13:34 | 41.45503 | -5.49995 | 32962 ft | 460 kts | 129° |
| 2026-04-20 13:35 | 41.41766 | -5.43061 | 32960 ft | 460 kts | 129° |
| 2026-04-20 13:35 | 41.38020 | -5.36144 | 32959 ft | 460 kts | 129° |
| 2026-04-20 13:36 | 41.34265 | -5.29236 | 32958 ft | 461 kts | 129° |
| 2026-04-20 13:36 | 41.30508 | -5.22327 | 32966 ft | 461 kts | 130° |
| 2026-04-20 13:37 | 41.26774 | -5.15471 | 32966 ft | 461 kts | 130° |
| 2026-04-20 13:37 | 41.23011 | -5.08577 | 32966 ft | 461 kts | 130° |
| 2026-04-20 13:38 | 41.19241 | -5.01690 | 32966 ft | 461 kts | 130° |
| 2026-04-20 13:38 | 41.15463 | -4.94805 | 32967 ft | 461 kts | 130° |
| 2026-04-20 13:39 | 41.11681 | -4.87921 | 32967 ft | 462 kts | 130° |
| 2026-04-20 13:39 | 41.07896 | -4.81040 | 32966 ft | 462 kts | 130° |
| 2026-04-20 13:40 | 41.04094 | -4.74159 | 32966 ft | 463 kts | 130° |
| 2026-04-20 13:40 | 41.00279 | -4.67286 | 32970 ft | 463 kts | 130° |
| 2026-04-20 13:41 | 40.96462 | -4.60409 | 32975 ft | 463 kts | 130° |
| 2026-04-20 13:41 | 40.92663 | -4.53573 | 32975 ft | 464 kts | 130° |
| 2026-04-20 13:42 | 40.88841 | -4.46705 | 32982 ft | 464 kts | 130° |
| 2026-04-20 13:42 | 40.83096 | -4.36420 | 32997 ft | 464 kts | 130° |
| 2026-04-20 13:43 | 40.79260 | -4.29571 | 32998 ft | 464 kts | 130° |
| 2026-04-20 13:43 | 40.75420 | -4.22739 | 32993 ft | 464 kts | 130° |
| 2026-04-20 13:44 | 40.71579 | -4.15909 | 32996 ft | 464 kts | 130° |
| 2026-04-20 13:44 | 40.67853 | -4.09294 | 33000 ft | 464 kts | 130° |
| 2026-04-20 13:45 | 40.63994 | -4.02468 | 33002 ft | 464 kts | 130° |
| 2026-04-20 13:45 | 40.60134 | -3.95667 | 33003 ft | 464 kts | 131° |
| 2026-04-20 13:46 | 40.56267 | -3.88851 | 33001 ft | 465 kts | 131° |
| 2026-04-20 13:46 | 40.52398 | -3.82038 | 32994 ft | 465 kts | 131° |
| 2026-04-20 13:47 | 40.48519 | -3.75238 | 32954 ft | 465 kts | 131° |
| 2026-04-20 13:47 | 40.44656 | -3.68481 | 32954 ft | 466 kts | 131° |
| 2026-04-20 13:48 | 40.40767 | -3.61682 | 32952 ft | 466 kts | 131° |
| 2026-04-20 13:48 | 40.36862 | -3.54875 | 32957 ft | 467 kts | 131° |
| 2026-04-20 13:49 | 40.32950 | -3.48069 | 32952 ft | 468 kts | 130° |
| 2026-04-20 13:49 | 40.29023 | -3.41259 | 32955 ft | 468 kts | 131° |
| 2026-04-20 13:50 | 40.25449 | -3.34097 | 32955 ft | 474 kts | 118° |
| 2026-04-20 13:50 | 40.23634 | -3.27296 | 32955 ft | 478 kts | 108° |
| 2026-04-20 13:51 | 40.21491 | -3.17535 | 32961 ft | 478 kts | 108° |
| 2026-04-20 13:51 | 40.19954 | -3.10583 | 32956 ft | 478 kts | 108° |
| 2026-04-20 13:52 | 40.17802 | -3.00871 | 32955 ft | 478 kts | 108° |
| 2026-04-20 13:52 | 40.15937 | -2.92522 | 32962 ft | 479 kts | 108° |
| 2026-04-20 13:53 | 40.14365 | -2.85519 | 32963 ft | 479 kts | 108° |
| 2026-04-20 13:53 | 40.12496 | -2.77195 | 32964 ft | 480 kts | 108° |
| 2026-04-20 13:54 | 40.10614 | -2.68834 | 32735 ft | 481 kts | 108° |
| 2026-04-20 13:54 | 40.09670 | -2.64645 | 32476 ft | 481 kts | 108° |
| 2026-04-20 13:54 | 40.08723 | -2.60451 | 32212 ft | 481 kts | 108° |
| 2026-04-20 13:55 | 40.07774 | -2.56265 | 31278 ft | 485 kts | 108° |
| 2026-04-20 13:55 | 40.06804 | -2.52003 | 30214 ft | 490 kts | 108° |
| 2026-04-20 13:55 | 40.05839 | -2.47771 | 29573 ft | 484 kts | 108° |
| 2026-04-20 13:55 | 40.04884 | -2.43580 | 28873 ft | 479 kts | 108° |
| 2026-04-20 13:56 | 40.03940 | -2.39436 | 28201 ft | 473 kts | 108° |
| 2026-04-20 13:56 | 40.03006 | -2.35342 | 27538 ft | 469 kts | 108° |
| 2026-04-20 13:56 | 40.02075 | -2.31280 | 26888 ft | 465 kts | 108° |
| 2026-04-20 13:56 | 40.01149 | -2.27256 | 26238 ft | 461 kts | 108° |
| 2026-04-20 13:57 | 40.00229 | -2.23268 | 25602 ft | 458 kts | 108° |
| 2026-04-20 13:57 | 39.99312 | -2.19308 | 24963 ft | 454 kts | 108° |
| 2026-04-20 13:57 | 39.98402 | -2.15380 | 24349 ft | 451 kts | 108° |
| 2026-04-20 13:57 | 39.97498 | -2.11475 | 23772 ft | 447 kts | 108° |
| 2026-04-20 13:58 | 39.96607 | -2.07610 | 23162 ft | 443 kts | 108° |
| 2026-04-20 13:58 | 39.95721 | -2.03780 | 22625 ft | 438 kts | 108° |
| 2026-04-20 13:58 | 39.94846 | -2.00012 | 22133 ft | 432 kts | 108° |
| 2026-04-20 13:58 | 39.93990 | -1.96336 | 21638 ft | 427 kts | 108° |
| 2026-04-20 13:59 | 39.93130 | -1.92661 | 21168 ft | 422 kts | 107° |
| 2026-04-20 13:59 | 39.92276 | -1.89014 | 20695 ft | 418 kts | 108° |
| 2026-04-20 13:59 | 39.91431 | -1.85410 | 20217 ft | 414 kts | 108° |
| 2026-04-20 13:59 | 39.90593 | -1.81842 | 19751 ft | 411 kts | 108° |
| 2026-04-20 14:00 | 39.89761 | -1.78293 | 19264 ft | 408 kts | 108° |
| 2026-04-20 14:00 | 39.88932 | -1.74769 | 18772 ft | 405 kts | 108° |
| 2026-04-20 14:00 | 39.88108 | -1.71272 | 18271 ft | 404 kts | 108° |
| 2026-04-20 14:00 | 39.87282 | -1.67783 | 17726 ft | 402 kts | 108° |
| 2026-04-20 14:01 | 39.86465 | -1.64328 | 17214 ft | 398 kts | 108° |
| 2026-04-20 14:01 | 39.85652 | -1.60892 | 16710 ft | 396 kts | 108° |
| 2026-04-20 14:01 | 39.84854 | -1.57521 | 16202 ft | 394 kts | 108° |
| 2026-04-20 14:01 | 39.84043 | -1.54122 | 15689 ft | 391 kts | 108° |
| 2026-04-20 14:02 | 39.83240 | -1.50760 | 15173 ft | 389 kts | 108° |
| 2026-04-20 14:02 | 39.82440 | -1.47407 | 14667 ft | 386 kts | 108° |
| 2026-04-20 14:02 | 39.81647 | -1.44079 | 14151 ft | 384 kts | 108° |
| 2026-04-20 14:02 | 39.80856 | -1.40759 | 13624 ft | 383 kts | 108° |
| 2026-04-20 14:03 | 39.80073 | -1.37465 | 13076 ft | 380 kts | 108° |
| 2026-04-20 14:03 | 39.79296 | -1.34205 | 12553 ft | 376 kts | 108° |
| 2026-04-20 14:03 | 39.78526 | -1.30971 | 12034 ft | 373 kts | 108° |
| 2026-04-20 14:03 | 39.77761 | -1.27770 | 11504 ft | 369 kts | 108° |
| 2026-04-20 14:04 | 39.76998 | -1.24592 | 10985 ft | 368 kts | 108° |
| 2026-04-20 14:04 | 39.76246 | -1.21466 | 10500 ft | 365 kts | 108° |
| 2026-04-20 14:04 | 39.75507 | -1.18384 | 10359 ft | 348 kts | 108° |
| 2026-04-20 14:04 | 39.74813 | -1.15498 | 10235 ft | 323 kts | 108° |
| 2026-04-20 14:05 | 39.74162 | -1.12797 | 9976 ft | 308 kts | 108° |
| 2026-04-20 14:05 | 39.73523 | -1.10166 | 9757 ft | 301 kts | 108° |
| 2026-04-20 14:05 | 39.72894 | -1.07581 | 9628 ft | 300 kts | 108° |
| 2026-04-20 14:05 | 39.72267 | -1.05005 | 9335 ft | 298 kts | 108° |
| 2026-04-20 14:06 | 39.71644 | -1.02441 | 8967 ft | 297 kts | 108° |
| 2026-04-20 14:06 | 39.71023 | -0.99885 | 8594 ft | 296 kts | 109° |
| 2026-04-20 14:06 | 39.70380 | -0.97346 | 8216 ft | 296 kts | 112° |
| 2026-04-20 14:07 | 39.69801 | -0.95795 | 7973 ft | 295 kts | 120° |
| 2026-04-20 14:07 | 39.68827 | -0.93487 | 7591 ft | 286 kts | 120° |
| 2026-04-20 14:07 | 39.67879 | -0.91263 | 7236 ft | 277 kts | 120° |
| 2026-04-20 14:07 | 39.66972 | -0.89123 | 6896 ft | 267 kts | 120° |
| 2026-04-20 14:08 | 39.66081 | -0.87011 | 6556 ft | 266 kts | 120° |
| 2026-04-20 14:08 | 39.65212 | -0.84941 | 6209 ft | 262 kts | 120° |
| 2026-04-20 14:08 | 39.64369 | -0.82920 | 5912 ft | 246 kts | 120° |
| 2026-04-20 14:08 | 39.63573 | -0.81011 | 5624 ft | 236 kts | 120° |
| 2026-04-20 14:09 | 39.62808 | -0.79175 | 5321 ft | 227 kts | 120° |
| 2026-04-20 14:09 | 39.61939 | -0.77524 | 5047 ft | 218 kts | 136° |
| 2026-04-20 14:09 | 39.60832 | -0.76228 | 4767 ft | 212 kts | 140° |
| 2026-04-20 14:09 | 39.59757 | -0.74988 | 4535 ft | 201 kts | 140° |
| 2026-04-20 14:10 | 39.58759 | -0.73760 | 4196 ft | 197 kts | 129° |
| 2026-04-20 14:10 | 39.58067 | -0.72243 | 3894 ft | 193 kts | 118° |
| 2026-04-20 14:10 | 39.57472 | -0.70694 | 3638 ft | 191 kts | 117° |
| 2026-04-20 14:10 | 39.56887 | -0.69149 | 3397 ft | 191 kts | 117° |
| 2026-04-20 14:11 | 39.56299 | -0.67594 | 3151 ft | 195 kts | 117° |
| 2026-04-20 14:11 | 39.55702 | -0.66013 | 2893 ft | 194 kts | 117° |
| 2026-04-20 14:11 | 39.55112 | -0.64454 | 2623 ft | 189 kts | 117° |
| 2026-04-20 14:11 | 39.54551 | -0.62969 | 2367 ft | 174 kts | 116° |
| 2026-04-20 14:12 | 39.54042 | -0.61642 | 2138 ft | 155 kts | 117° |
| 2026-04-20 14:12 | 39.53589 | -0.60430 | 1912 ft | 145 kts | 115° |
| 2026-04-20 14:12 | 39.53167 | -0.59262 | 1772 ft | 143 kts | 118° |
| 2026-04-20 14:12 | 39.52731 | -0.58109 | 1526 ft | 143 kts | 117° |
| 2026-04-20 14:13 | 39.52298 | -0.56983 | 1402 ft | 138 kts | 117° |
| 2026-04-20 14:13 | 39.51873 | -0.55866 | 1171 ft | 139 kts | 117° |
| 2026-04-20 14:13 | 39.51442 | -0.54754 | 1080 ft | 138 kts | 117° |
| 2026-04-20 14:13 | 39.51017 | -0.53644 | 890 ft | 137 kts | 117° |
| 2026-04-20 14:14 | 39.50593 | -0.52539 | 697 ft | 136 kts | 116° |
| 2026-04-20 14:14 | 39.50178 | -0.51433 | 480 ft | 136 kts | 115° |
| 2026-04-20 14:14 | 39.49762 | -0.50340 | 318 ft | 135 kts | 116° |
| 2026-04-20 14:14 | 39.49359 | -0.49285 | 213 ft | 123 kts | 116° |
| 2026-04-20 14:15 | 39.49065 | -0.48510 | 210 ft | 59 kts | 116° |
| 2026-04-20 14:15 | 39.48971 | -0.48224 | 209 ft | 25 kts | 95° |
| 2026-04-20 14:15 | 39.48997 | -0.48014 | 213 ft | 14 kts | 77° |
| 2026-04-20 14:15 | 39.49020 | -0.47898 | 209 ft | 14 kts | 75° |
| 2026-04-20 14:16 | 39.49044 | -0.47764 | 209 ft | 16 kts | 78° |
| 2026-04-20 14:16 | 39.49055 | -0.47626 | 211 ft | 14 kts | 107° |
| 2026-04-20 14:16 | 39.49018 | -0.47518 | 214 ft | 11 kts | 98° |
| 2026-04-20 14:16 | 39.49064 | -0.47444 | 210 ft | 8 kts | 39° |
| 2026-04-20 14:17 | 39.49067 | -0.47440 | 211 ft | 0 kts | 39° |